createdAt,value
2018-10-12T00:01:38.764Z,15.00
2018-10-12T00:04:09.605Z,15.10
2018-10-12T00:06:40.695Z,15.30
2018-10-12T00:09:11.812Z,15.50
2018-10-12T00:11:41.861Z,15.10
2018-10-12T00:14:11.577Z,15.27
2018-10-12T00:16:40.533Z,15.57
2018-10-12T00:19:11.179Z,15.77
2018-10-12T00:21:41.765Z,15.40
2018-10-12T00:24:11.697Z,14.23
2018-10-12T00:26:42.837Z,14.37
2018-10-12T00:29:14.317Z,14.10
2018-10-12T00:31:43.859Z,14.33
2018-10-12T00:34:13.502Z,13.40
2018-10-12T00:36:43.529Z,13.47
2018-10-12T00:39:13.483Z,13.83
2018-10-12T00:41:45.359Z,13.50
2018-10-12T00:44:15.852Z,13.70
2018-10-12T00:46:46.345Z,14.37
2018-10-12T00:49:18.561Z,15.90
2018-10-12T00:51:49.382Z,15.03
2018-10-12T00:54:20.278Z,14.37
2018-10-12T00:56:50.291Z,13.70
2018-10-12T00:59:20.903Z,14.27
2018-10-12T01:01:51.190Z,13.03
2018-10-12T01:04:22.666Z,14.13
2018-10-12T01:06:54.539Z,14.07
2018-10-12T01:09:23.514Z,14.57
2018-10-12T01:12:04.092Z,14.47
2018-10-12T01:14:33.834Z,14.93
2018-10-12T01:17:03.093Z,13.87
2018-10-12T01:19:32.581Z,14.97
2018-10-12T01:22:02.980Z,14.87
2018-10-12T01:24:33.587Z,13.73
2018-10-12T01:27:03.643Z,13.13
2018-10-12T01:29:33.723Z,15.87
2018-10-12T01:32:04.578Z,14.33
2018-10-12T01:34:34.316Z,14.53
2018-10-12T01:37:05.788Z,14.27
2018-10-12T01:39:36.153Z,13.80
2018-10-12T01:42:07.493Z,14.77
2018-10-12T01:44:38.247Z,14.00
2018-10-12T01:47:09.588Z,13.67
2018-10-12T01:49:40.375Z,14.67
2018-10-12T01:52:11.498Z,14.07
2018-10-12T01:54:41.444Z,14.43
2018-10-12T01:57:13.741Z,13.13
2018-10-12T01:59:44.632Z,13.97
2018-10-12T02:02:14.852Z,13.87
2018-10-12T02:04:46.054Z,14.53
2018-10-12T02:07:16.568Z,14.03
2018-10-12T02:09:47.786Z,13.33
2018-10-12T02:12:18.149Z,13.23
2018-10-12T02:14:48.704Z,13.27
2018-10-12T02:17:19.162Z,15.13
2018-10-12T02:19:49.427Z,15.47
2018-10-12T02:22:19.165Z,15.73
2018-10-12T02:24:49.666Z,16.53
2018-10-12T02:27:20.163Z,15.93
2018-10-12T02:29:50.618Z,16.03
2018-10-12T02:32:20.285Z,15.77
2018-10-12T02:34:50.027Z,15.73
2018-10-12T02:37:20.443Z,16.27
2018-10-12T02:39:50.915Z,15.17
2018-10-12T02:42:21.644Z,15.17
2018-10-12T02:44:52.052Z,15.03
2018-10-12T02:47:22.281Z,15.07
2018-10-12T02:49:53.273Z,15.20
2018-10-12T02:52:22.928Z,13.73
2018-10-12T02:54:53.458Z,13.90
2018-10-12T02:57:23.807Z,14.43
2018-10-12T02:59:53.009Z,14.97
2018-10-12T03:02:25.869Z,13.80
2018-10-12T03:04:56.320Z,15.47
2018-10-12T03:07:28.353Z,14.30
2018-10-12T03:09:58.035Z,14.93
2018-10-12T03:12:29.989Z,14.83
2018-10-12T03:15:00.661Z,15.30
2018-10-12T03:17:31.065Z,14.17
2018-10-12T03:20:01.629Z,15.30
2018-10-12T03:22:32.533Z,14.07
2018-10-12T03:25:03.209Z,14.27
2018-10-12T03:27:44.946Z,14.57
2018-10-12T03:30:14.912Z,14.73
2018-10-12T03:32:45.495Z,15.00
2018-10-12T03:35:16.379Z,14.97
2018-10-12T03:37:45.097Z,15.00
2018-10-12T03:40:16.607Z,14.23
2018-10-12T03:42:47.449Z,14.07
2018-10-12T03:45:16.147Z,15.97
2018-10-12T03:47:45.922Z,14.97
2018-10-12T03:50:16.419Z,14.97
2018-10-12T03:52:46.259Z,17.27
2018-10-12T03:55:16.831Z,16.10
2018-10-12T03:57:47.288Z,15.77
2018-10-12T04:00:17.747Z,16.50
2018-10-12T04:02:47.454Z,16.07
2018-10-12T04:05:18.160Z,16.60
2018-10-12T04:07:47.391Z,16.20
2018-10-12T04:10:17.877Z,16.50
2018-10-12T04:12:49.420Z,17.60
2018-10-12T04:15:19.373Z,16.33
2018-10-12T04:17:50.803Z,15.63
2018-10-12T04:20:20.299Z,14.97
2018-10-12T04:22:50.029Z,17.43
2018-10-12T04:25:21.327Z,16.50
2018-10-12T04:27:52.776Z,16.63
2018-10-12T04:30:24.114Z,16.60
2018-10-12T04:32:54.672Z,17.47
2018-10-12T04:35:25.093Z,17.50
2018-10-12T04:37:55.476Z,18.40
2018-10-12T04:41:21.968Z,17.90
2018-10-12T04:43:54.468Z,18.67
2018-10-12T04:46:34.343Z,19.67
2018-10-12T04:49:05.524Z,18.47
2018-10-12T04:51:42.113Z,18.43
2018-10-12T04:54:13.515Z,18.00
2018-10-12T04:56:44.021Z,17.47
2018-10-12T04:59:15.153Z,16.83
2018-10-12T05:01:45.303Z,18.57
2018-10-12T05:04:15.011Z,17.37
2018-10-12T05:06:47.459Z,19.03
2018-10-12T05:09:19.024Z,17.67
2018-10-12T05:11:50.988Z,19.13
2018-10-12T05:14:20.718Z,17.40
2018-10-12T05:16:51.400Z,17.63
2018-10-12T05:19:21.058Z,17.47
2018-10-12T05:21:52.016Z,18.43
2018-10-12T05:24:23.820Z,18.47
2018-10-12T05:26:54.744Z,17.23
2018-10-12T05:29:23.784Z,17.73
2018-10-12T05:31:54.378Z,17.30
2018-10-12T05:34:24.840Z,18.27
2018-10-12T05:36:53.964Z,19.00
2018-10-12T05:39:24.336Z,18.73
2018-10-12T05:41:54.970Z,19.40
2018-10-12T05:44:25.398Z,18.67
2018-10-12T05:46:56.802Z,19.17
2018-10-12T05:49:37.386Z,19.63
2018-10-12T05:52:08.010Z,19.80
2018-10-12T05:54:37.572Z,20.43
2018-10-12T05:57:07.198Z,20.87
2018-10-12T05:59:36.421Z,20.17
2018-10-12T06:02:07.073Z,21.30
2018-10-12T06:04:38.264Z,21.53
2018-10-12T06:07:08.695Z,21.77
2018-10-12T06:09:39.056Z,22.77
2018-10-12T06:12:11.116Z,22.77
2018-10-12T06:14:42.482Z,22.90
2018-10-12T06:17:14.250Z,22.37
2018-10-12T06:19:44.309Z,22.27
2018-10-12T06:22:15.260Z,23.00
2018-10-12T06:24:44.780Z,22.90
2018-10-12T06:27:14.912Z,22.37
2018-10-12T06:29:44.589Z,22.73
2018-10-12T06:32:14.752Z,23.90
2018-10-12T06:34:43.604Z,23.07
2018-10-12T06:37:14.131Z,23.60
2018-10-12T06:39:43.750Z,22.07
2018-10-12T06:42:15.048Z,22.93
2018-10-12T06:44:44.518Z,22.50
2018-10-12T06:47:14.909Z,22.63
2018-10-12T06:49:44.670Z,22.80
2018-10-12T06:52:14.989Z,23.97
2018-10-12T06:54:44.862Z,23.53
2018-10-12T06:57:15.495Z,22.77
2018-10-12T06:59:45.220Z,23.33
2018-10-12T07:02:18.057Z,23.13
2018-10-12T07:04:50.408Z,23.47
2018-10-12T07:07:21.308Z,22.53
2018-10-12T07:09:52.724Z,24.30
2018-10-12T07:12:22.816Z,23.23
2018-10-12T07:14:52.990Z,22.87
2018-10-12T07:17:23.381Z,22.30
2018-10-12T07:19:53.561Z,23.27
2018-10-12T07:22:23.004Z,21.97
2018-10-12T07:24:53.044Z,21.63
2018-10-12T07:27:23.082Z,21.97
2018-10-12T07:29:53.060Z,22.47
2018-10-12T07:32:22.348Z,22.17
2018-10-12T07:34:52.792Z,23.67
2018-10-12T07:37:24.118Z,23.40
2018-10-12T07:39:54.580Z,21.90
2018-10-12T07:42:25.689Z,21.97
2018-10-12T07:44:57.134Z,22.10
2018-10-12T07:47:27.942Z,21.63
2018-10-12T07:49:56.780Z,21.30
2018-10-12T07:52:27.786Z,20.90
2018-10-12T07:54:58.117Z,21.87
2018-10-12T07:57:30.246Z,21.20
2018-10-12T08:00:01.552Z,20.87
2018-10-12T08:02:31.217Z,19.97
2018-10-12T08:05:02.358Z,20.80
2018-10-12T08:07:32.841Z,19.80
2018-10-12T08:10:04.144Z,20.60
2018-10-12T08:12:34.771Z,21.40
2018-10-12T08:15:03.928Z,20.40
2018-10-12T08:17:34.540Z,19.40
2018-10-12T08:20:05.922Z,20.30
2018-10-12T08:22:37.503Z,20.03
2018-10-12T08:25:07.291Z,19.63
2018-10-12T08:27:36.189Z,20.57
2018-10-12T08:30:06.732Z,20.07
2018-10-12T08:32:38.690Z,19.77
2018-10-12T08:35:10.088Z,19.77
2018-10-12T08:37:40.765Z,18.50
2018-10-12T08:40:11.379Z,19.60
2018-10-12T08:42:41.462Z,19.10
2018-10-12T08:45:11.625Z,19.00
2018-10-12T08:47:48.904Z,19.30
2018-10-12T08:50:21.260Z,18.43
2018-10-12T08:52:52.377Z,18.97
2018-10-12T08:55:23.099Z,18.37
2018-10-12T08:57:53.367Z,18.93
2018-10-12T09:00:23.926Z,19.23
2018-10-12T09:02:55.538Z,19.03
2018-10-12T09:05:25.161Z,19.33
2018-10-12T09:07:55.743Z,19.57
2018-10-12T09:10:25.375Z,18.60
2018-10-12T09:12:56.969Z,18.60
2018-10-12T09:15:27.928Z,19.03
2018-10-12T09:17:58.359Z,19.23
2018-10-12T09:20:29.662Z,18.40
2018-10-12T09:23:00.140Z,18.60
2018-10-12T09:25:30.420Z,17.77
2018-10-12T09:27:59.393Z,18.40
2018-10-12T09:30:30.986Z,18.83
2018-10-12T09:33:02.390Z,18.43
2018-10-12T09:35:34.001Z,19.37
2018-10-12T09:38:04.548Z,19.57
2018-10-12T09:40:36.354Z,19.53
2018-10-12T09:43:07.107Z,18.73
2018-10-12T09:45:38.044Z,19.10
2018-10-12T09:48:08.778Z,18.60
2018-10-12T09:50:39.780Z,18.17
2018-10-12T09:53:09.427Z,18.70
2018-10-12T09:55:41.269Z,18.80
2018-10-12T09:58:10.960Z,17.33
2018-10-12T10:00:45.833Z,18.17
2018-10-12T10:03:21.666Z,18.70
2018-10-12T10:05:51.414Z,18.57
2018-10-12T10:08:21.175Z,17.97
2018-10-12T10:10:51.850Z,17.27
2018-10-12T10:13:20.549Z,17.43
2018-10-12T10:15:51.569Z,17.83
2018-10-12T10:18:22.502Z,16.83
2018-10-12T10:20:52.028Z,17.63
2018-10-12T10:23:22.436Z,18.23
2018-10-12T10:25:53.532Z,16.60
2018-10-12T10:28:23.900Z,15.83
2018-10-12T10:30:54.144Z,16.70
2018-10-12T10:33:23.803Z,15.80
2018-10-12T10:35:55.109Z,16.97
2018-10-12T10:38:26.282Z,16.57
2018-10-12T10:40:57.994Z,17.73
2018-10-12T10:43:29.533Z,17.90
2018-10-12T10:46:00.970Z,17.83
2018-10-12T10:48:31.554Z,18.20
2018-10-12T10:51:00.281Z,18.00
2018-10-12T10:53:30.671Z,17.30
2018-10-12T10:56:01.497Z,17.60
2018-10-12T10:58:31.212Z,18.03
2018-10-12T11:01:00.701Z,18.50
2018-10-12T11:03:31.317Z,18.87
2018-10-12T11:06:03.814Z,18.17
2018-10-12T11:08:33.289Z,17.93
2018-10-12T11:11:02.926Z,18.53
2018-10-12T11:13:32.670Z,18.30
2018-10-12T11:16:02.415Z,18.10
2018-10-12T11:18:31.913Z,17.77
2018-10-12T11:21:02.476Z,17.77
2018-10-12T11:23:32.211Z,17.10
2018-10-12T11:26:01.928Z,17.90
2018-10-12T11:28:32.712Z,16.67
2018-10-12T11:31:03.610Z,16.87
2018-10-12T11:33:33.992Z,16.70
2018-10-12T11:36:05.202Z,16.05
2018-10-12T11:38:36.437Z,16.77
2018-10-12T11:41:06.944Z,16.95
2018-10-12T11:43:39.670Z,16.40
2018-10-12T11:46:10.080Z,16.17
2018-10-12T11:48:39.821Z,15.98
2018-10-12T11:51:09.361Z,15.55
2018-10-12T11:53:40.131Z,16.00
2018-10-12T11:56:12.519Z,16.27
2018-10-12T11:58:42.181Z,15.85
2018-10-12T12:01:11.876Z,15.70
2018-10-12T12:03:43.342Z,15.40
2018-10-12T12:06:12.933Z,16.85
2018-10-12T12:08:42.551Z,15.78
2018-10-12T12:11:12.933Z,16.30
2018-10-12T12:13:44.227Z,16.27
2018-10-12T12:16:15.730Z,15.93
2018-10-12T12:18:46.292Z,15.60
2018-10-12T12:21:15.451Z,16.15
2018-10-12T12:23:45.224Z,17.07
2018-10-12T12:26:16.584Z,15.70
2018-10-12T12:28:46.400Z,16.25
2018-10-12T12:31:16.077Z,16.42
2018-10-12T12:33:46.521Z,16.55
2018-10-12T12:36:15.698Z,15.70
2018-10-12T12:38:46.824Z,16.12
2018-10-12T12:41:16.423Z,15.72
2018-10-12T12:43:46.575Z,15.65
2018-10-12T12:46:15.957Z,15.83
2018-10-12T12:48:46.631Z,16.25
2018-10-12T12:51:15.709Z,15.60
2018-10-12T12:53:46.118Z,16.25
2018-10-12T12:56:15.534Z,16.23
2018-10-12T12:58:47.215Z,16.23
2018-10-12T13:01:16.814Z,16.10
2018-10-12T13:03:47.297Z,16.30
2018-10-12T13:06:16.932Z,17.17
2018-10-12T13:08:46.331Z,16.93
2018-10-12T13:11:16.375Z,17.83
2018-10-12T13:13:46.319Z,15.87
2018-10-12T13:16:16.952Z,16.70
2018-10-12T13:18:47.237Z,16.60
2018-10-12T13:21:16.685Z,15.90
2018-10-12T13:23:47.301Z,16.63
2018-10-12T13:26:16.208Z,16.57
2018-10-12T13:28:45.658Z,17.13
2018-10-12T13:31:14.328Z,17.67
2018-10-12T13:33:45.576Z,17.23
2018-10-12T13:36:16.212Z,17.57
2018-10-12T13:38:46.454Z,18.17
2018-10-12T13:41:16.617Z,17.17
2018-10-12T13:43:46.432Z,17.50
2018-10-12T13:46:15.670Z,16.87
2018-10-12T13:48:45.285Z,17.60
2018-10-12T13:51:15.040Z,17.10
2018-10-12T13:53:44.980Z,17.90
2018-10-12T13:56:14.962Z,16.97
2018-10-12T13:58:45.719Z,17.63
2018-10-12T14:01:16.330Z,18.33
2018-10-12T14:03:47.562Z,17.83
2018-10-12T14:06:17.301Z,18.43
2018-10-12T14:08:46.854Z,17.57
2018-10-12T14:11:15.737Z,17.57
2018-10-12T14:13:46.253Z,18.00
2018-10-12T14:16:18.407Z,18.47
2018-10-12T14:18:49.676Z,18.90
2018-10-12T14:21:21.263Z,18.37
2018-10-12T14:23:51.835Z,19.10
2018-10-12T14:26:23.196Z,18.67
2018-10-12T14:28:53.609Z,18.57
2018-10-12T14:31:24.431Z,18.87
2018-10-12T14:33:55.735Z,18.57
2018-10-12T14:36:26.334Z,19.13
2018-10-12T14:38:55.804Z,18.47
2018-10-12T14:41:26.357Z,18.77
2018-10-12T14:43:55.927Z,18.60
2018-10-12T14:46:26.473Z,18.57
2018-10-12T14:48:56.724Z,18.90
2018-10-12T14:51:27.767Z,19.00
2018-10-12T14:53:57.515Z,19.40
2018-10-12T14:56:27.190Z,18.97
2018-10-12T14:58:57.550Z,19.67
2018-10-12T15:01:27.262Z,19.40
2018-10-12T15:03:57.363Z,19.47
2018-10-12T15:06:26.877Z,20.57
2018-10-12T15:08:56.069Z,21.23
2018-10-12T15:11:26.393Z,19.73
2018-10-12T15:13:56.782Z,19.77
2018-10-12T15:16:25.934Z,20.13
2018-10-12T15:18:56.628Z,19.70
2018-10-12T15:21:26.859Z,20.63
2018-10-12T15:23:56.174Z,19.73
2018-10-12T15:26:25.351Z,19.60
2018-10-12T15:28:54.902Z,20.87
2018-10-12T15:31:25.501Z,20.40
2018-10-12T15:33:55.265Z,20.30
2018-10-12T15:36:24.983Z,22.00
2018-10-12T15:39:02.001Z,21.10
2018-10-12T15:41:32.618Z,21.00
2018-10-12T15:44:02.361Z,20.93
2018-10-12T15:46:33.348Z,21.87
2018-10-12T15:49:03.664Z,21.33
2018-10-12T15:51:33.381Z,21.00
2018-10-12T15:54:03.150Z,20.47
2018-10-12T15:56:32.112Z,21.00
2018-10-12T15:59:03.413Z,21.17
2018-10-12T16:01:33.060Z,21.63
2018-10-12T16:04:02.327Z,21.73
2018-10-12T16:06:32.919Z,20.87
2018-10-12T16:09:04.995Z,20.53
2018-10-12T16:11:34.716Z,21.80
2018-10-12T16:14:06.096Z,21.67
2018-10-12T16:16:35.756Z,21.70
2018-10-12T16:19:04.529Z,21.53
2018-10-12T16:21:34.113Z,21.43
2018-10-12T16:24:08.631Z,20.87
2018-10-12T16:26:38.284Z,22.03
2018-10-12T16:29:10.650Z,20.43
2018-10-12T16:31:41.438Z,21.90
2018-10-12T16:34:12.745Z,22.30
2018-10-12T16:36:42.333Z,21.57
2018-10-12T16:39:12.866Z,21.37
2018-10-12T16:41:43.861Z,21.17
2018-10-12T16:44:13.365Z,21.77
2018-10-12T16:46:43.879Z,21.87
2018-10-12T16:49:15.273Z,21.50
2018-10-12T16:51:45.747Z,22.67
2018-10-12T16:54:16.333Z,22.13
2018-10-12T16:56:47.013Z,23.43
2018-10-12T16:59:16.941Z,21.53
2018-10-12T17:01:47.188Z,22.50
2018-10-12T17:04:17.254Z,22.70
2018-10-12T17:06:46.346Z,22.57
2018-10-12T17:09:17.449Z,22.93
2018-10-12T17:11:47.305Z,23.93
2018-10-12T17:14:16.433Z,22.33
2018-10-12T17:16:46.901Z,22.73
2018-10-12T17:19:18.061Z,23.63
2018-10-12T17:21:49.382Z,22.60
2018-10-12T17:24:18.959Z,23.50
2018-10-12T17:26:48.747Z,23.30
2018-10-12T17:29:19.133Z,24.10
2018-10-12T17:31:49.650Z,23.47
2018-10-12T17:34:21.281Z,23.87
2018-10-12T17:36:52.059Z,25.27
2018-10-12T17:39:20.941Z,24.57
2018-10-12T17:41:50.720Z,24.27
2018-10-12T17:44:20.821Z,26.17
2018-10-12T17:46:51.206Z,23.37
2018-10-12T17:49:21.790Z,23.13
2018-10-12T17:51:53.537Z,23.80
2018-10-12T17:54:22.375Z,23.40
2018-10-12T17:56:53.491Z,24.73
2018-10-12T17:59:23.929Z,24.53
2018-10-12T18:01:55.299Z,24.37
2018-10-12T18:04:24.297Z,23.33
2018-10-12T18:06:53.785Z,24.70
2018-10-12T18:09:25.155Z,23.87
2018-10-12T18:11:56.580Z,24.77
2018-10-12T18:14:27.166Z,24.00
2018-10-12T18:16:55.990Z,23.23
2018-10-12T18:19:27.204Z,25.23
2018-10-12T18:21:57.765Z,24.73
2018-10-12T18:24:27.390Z,25.33
2018-10-12T18:26:58.791Z,25.37
2018-10-12T18:29:29.742Z,25.30
2018-10-12T18:31:58.495Z,25.33
2018-10-12T18:34:27.988Z,25.90
2018-10-12T18:36:57.732Z,25.07
2018-10-12T18:39:28.337Z,26.60
2018-10-12T18:41:57.072Z,25.70
2018-10-12T18:44:27.695Z,26.13
2018-10-12T18:46:59.351Z,24.73
2018-10-12T18:49:29.094Z,26.43
2018-10-12T18:51:59.857Z,25.83
2018-10-12T18:54:29.581Z,25.97
2018-10-12T18:57:00.181Z,26.50
2018-10-12T18:59:30.724Z,26.00
2018-10-12T19:01:59.479Z,26.13
2018-10-12T19:04:30.677Z,26.17
2018-10-12T19:06:59.757Z,25.43
2018-10-12T19:09:30.369Z,26.63
2018-10-12T19:12:00.559Z,26.33
2018-10-12T19:14:30.775Z,27.90
2018-10-12T19:17:00.485Z,27.13
2018-10-12T19:19:30.712Z,25.87
2018-10-12T19:22:01.000Z,26.60
2018-10-12T19:24:31.563Z,26.83
2018-10-12T19:27:01.083Z,26.83
2018-10-12T19:29:31.073Z,26.70
2018-10-12T19:32:01.563Z,27.53
2018-10-12T19:34:31.169Z,27.33
2018-10-12T19:37:01.975Z,27.30
2018-10-12T19:39:32.467Z,27.73
2018-10-12T19:42:03.003Z,26.17
2018-10-12T19:44:32.493Z,27.80
2018-10-12T19:47:03.233Z,26.90
2018-10-12T19:49:33.647Z,27.13
2018-10-12T19:52:03.389Z,27.37
2018-10-12T19:54:33.811Z,28.37
2018-10-12T19:57:04.569Z,28.43
2018-10-12T19:59:34.620Z,27.37
2018-10-12T20:02:05.095Z,28.30
2018-10-12T20:04:37.520Z,27.23
2018-10-12T20:07:07.292Z,27.67
2018-10-12T20:09:36.378Z,26.77
2018-10-12T20:12:06.173Z,26.53
2018-10-12T20:14:35.856Z,27.17
2018-10-12T20:17:05.374Z,28.13
2018-10-12T20:19:36.193Z,27.93
2018-10-12T20:22:08.243Z,27.20
2018-10-12T20:24:37.993Z,26.70
2018-10-12T20:27:07.932Z,27.40
2018-10-12T20:29:38.604Z,27.77
2018-10-12T20:32:08.528Z,28.47
2018-10-12T20:34:38.300Z,27.70
2018-10-12T20:37:07.844Z,28.57
2018-10-12T20:39:37.687Z,27.77
2018-10-12T20:42:07.589Z,28.83
2018-10-12T20:44:38.662Z,27.67
2018-10-12T20:47:09.847Z,29.60
2018-10-12T20:49:38.701Z,28.73
2018-10-12T20:52:08.828Z,29.60
2018-10-12T20:54:39.544Z,28.23
2018-10-12T20:57:10.591Z,29.47
2018-10-12T20:59:41.940Z,28.87
2018-10-12T21:02:11.727Z,29.13
2018-10-12T21:04:41.492Z,28.07
2018-10-12T21:07:12.001Z,28.70
2018-10-12T21:09:42.489Z,29.93
2018-10-12T21:12:14.013Z,29.27
2018-10-12T21:14:43.645Z,29.13
2018-10-12T21:17:13.991Z,28.83
2018-10-12T21:19:45.407Z,29.00
2018-10-12T21:22:16.133Z,28.50
2018-10-12T21:24:47.189Z,29.03
2018-10-12T21:27:16.376Z,28.07
2018-10-12T21:29:46.137Z,28.83
2018-10-12T21:32:16.507Z,27.10
2018-10-12T21:34:46.119Z,30.07
2018-10-12T21:37:16.834Z,29.87
2018-10-12T21:39:46.420Z,29.23
2018-10-12T21:42:17.029Z,29.00
2018-10-12T21:44:47.731Z,28.33
2018-10-12T21:47:17.257Z,29.13
2018-10-12T21:49:46.917Z,27.80
2018-10-12T21:52:15.636Z,28.00
2018-10-12T21:54:45.473Z,30.03
2018-10-12T21:57:16.492Z,28.43
2018-10-12T21:59:47.984Z,28.63
2018-10-12T22:02:18.507Z,28.60
2018-10-12T22:04:49.077Z,28.87
2018-10-12T22:07:19.665Z,29.23
2018-10-12T22:09:49.521Z,28.43
2018-10-12T22:12:20.601Z,28.97
2018-10-12T22:14:52.095Z,28.40
2018-10-12T22:17:23.116Z,28.13
2018-10-12T22:19:52.725Z,27.27
2018-10-12T22:22:23.432Z,28.27
2018-10-12T22:24:54.418Z,30.07
2018-10-12T22:27:23.145Z,29.83
2018-10-12T22:29:54.029Z,29.50
2018-10-12T22:32:24.113Z,30.07
2018-10-12T22:34:53.628Z,30.60
2018-10-12T22:37:24.033Z,29.50
2018-10-12T22:39:56.125Z,29.73
2018-10-12T22:42:25.752Z,30.60
2018-10-12T22:44:56.233Z,32.03
2018-10-12T22:47:25.837Z,29.50
2018-10-12T22:49:55.501Z,28.87
2018-10-12T22:52:24.244Z,28.77
2018-10-12T22:54:54.178Z,28.87
2018-10-12T22:57:25.092Z,29.13
2018-10-12T22:59:54.789Z,28.43
2018-10-12T23:02:24.290Z,28.03
2018-10-12T23:04:53.932Z,28.40
2018-10-12T23:07:22.718Z,28.33
2018-10-12T23:09:52.750Z,28.90
2018-10-12T23:12:22.745Z,28.23
2018-10-12T23:14:52.795Z,28.77
2018-10-12T23:17:22.846Z,29.00
2018-10-12T23:19:53.573Z,26.53
2018-10-12T23:22:22.535Z,27.77
2018-10-12T23:24:53.812Z,27.53
2018-10-12T23:27:24.422Z,27.27
2018-10-12T23:29:55.468Z,26.67
2018-10-12T23:32:25.201Z,26.93
2018-10-12T23:34:55.152Z,26.53
2018-10-12T23:37:24.756Z,24.97
2018-10-12T23:39:54.556Z,25.80
2018-10-12T23:42:26.674Z,25.77
2018-10-12T23:44:55.351Z,25.30
2018-10-12T23:47:25.044Z,24.30
2018-10-12T23:49:54.709Z,25.27
2018-10-12T23:52:24.833Z,25.53
2018-10-12T23:54:54.608Z,24.53
2018-10-12T23:57:26.114Z,25.77
2018-10-12T23:59:57.728Z,25.57
